sensor_id;sensor_type;location;lat;lon;timestamp;temperature;humidity
8489;DHT22;4281;45.772;12.852;2022-10-16T00:01:40;17.90;99.90
8489;DHT22;4281;45.772;12.852;2022-10-16T00:04:09;17.90;99.90
8489;DHT22;4281;45.772;12.852;2022-10-16T00:06:37;17.90;99.90
8489;DHT22;4281;45.772;12.852;2022-10-16T00:09:06;18.00;99.90
8489;DHT22;4281;45.772;12.852;2022-10-16T00:11:37;18.00;99.90
8489;DHT22;4281;45.772;12.852;2022-10-16T00:14:08;18.00;99.90
8489;DHT22;4281;45.772;12.852;2022-10-16T00:16:37;17.80;99.90
8489;DHT22;4281;45.772;12.852;2022-10-16T00:19:07;17.80;99.90
8489;DHT22;4281;45.772;12.852;2022-10-16T00:21:36;17.80;99.90
8489;DHT22;4281;45.772;12.852;2022-10-16T00:24:07;17.80;99.90
8489;DHT22;4281;45.772;12.852;2022-10-16T00:26:37;17.90;99.90
8489;DHT22;4281;45.772;12.852;2022-10-16T00:29:07;18.10;99.90
8489;DHT22;4281;45.772;12.852;2022-10-16T00:31:35;18.10;99.90
8489;DHT22;4281;45.772;12.852;2022-10-16T00:34:04;18.10;99.90
8489;DHT22;4281;45.772;12.852;2022-10-16T00:36:34;18.10;99.90
8489;DHT22;4281;45.772;12.852;2022-10-16T00:39:03;18.10;99.90
8489;DHT22;4281;45.772;12.852;2022-10-16T00:41:33;18.00;99.90
8489;DHT22;4281;45.772;12.852;2022-10-16T00:44:03;18.00;99.90
8489;DHT22;4281;45.772;12.852;2022-10-16T00:46:37;17.90;99.90
8489;DHT22;4281;45.772;12.852;2022-10-16T00:49:09;17.70;99.90
8489;DHT22;4281;45.772;12.852;2022-10-16T00:51:40;17.70;99.90
8489;DHT22;4281;45.772;12.852;2022-10-16T00:54:11;17.50;99.90
8489;DHT22;4281;45.772;12.852;2022-10-16T00:56:42;17.50;99.90
8489;DHT22;4281;45.772;12.852;2022-10-16T00:59:16;17.70;99.90
8489;DHT22;4281;45.772;12.852;2022-10-16T01:01:46;17.70;99.90
8489;DHT22;4281;45.772;12.852;2022-10-16T01:04:14;17.70;99.90
8489;DHT22;4281;45.772;12.852;2022-10-16T01:06:49;17.90;99.90
8489;DHT22;4281;45.772;12.852;2022-10-16T01:09:25;17.90;99.90
8489;DHT22;4281;45.772;12.852;2022-10-16T01:12:04;17.70;99.90
8489;DHT22;4281;45.772;12.852;2022-10-16T01:14:40;17.80;99.90
8489;DHT22;4281;45.772;12.852;2022-10-16T01:17:13;17.80;99.90
8489;DHT22;4281;45.772;12.852;2022-10-16T01:20:06;17.70;99.90
8489;DHT22;4281;45.772;12.852;2022-10-16T01:22:43;17.70;99.90
8489;DHT22;4281;45.772;12.852;2022-10-16T01:25:22;17.60;99.90
8489;DHT22;4281;45.772;12.852;2022-10-16T01:27:55;17.40;99.90
8489;DHT22;4281;45.772;12.852;2022-10-16T01:30:26;17.30;99.90
8489;DHT22;4281;45.772;12.852;2022-10-16T01:32:58;17.10;99.90
8489;DHT22;4281;45.772;12.852;2022-10-16T01:35:31;17.10;99.90
8489;DHT22;4281;45.772;12.852;2022-10-16T01:38:04;17.20;99.90
8489;DHT22;4281;45.772;12.852;2022-10-16T01:40:39;17.30;99.90
8489;DHT22;4281;45.772;12.852;2022-10-16T01:43:14;17.40;99.90
8489;DHT22;4281;45.772;12.852;2022-10-16T01:45:44;17.40;99.90
8489;DHT22;4281;45.772;12.852;2022-10-16T01:48:17;17.00;99.90
8489;DHT22;4281;45.772;12.852;2022-10-16T01:50:54;16.80;99.90
8489;DHT22;4281;45.772;12.852;2022-10-16T01:53:23;16.70;99.90
8489;DHT22;4281;45.772;12.852;2022-10-16T01:55:55;16.90;99.90
8489;DHT22;4281;45.772;12.852;2022-10-16T01:58:25;16.90;99.90
8489;DHT22;4281;45.772;12.852;2022-10-16T02:00:55;16.90;99.90
8489;DHT22;4281;45.772;12.852;2022-10-16T02:03:23;16.80;99.90
8489;DHT22;4281;45.772;12.852;2022-10-16T02:05:54;16.70;99.90
8489;DHT22;4281;45.772;12.852;2022-10-16T02:08:25;16.80;99.90
8489;DHT22;4281;45.772;12.852;2022-10-16T02:10:55;16.80;99.90
8489;DHT22;4281;45.772;12.852;2022-10-16T02:13:28;16.80;99.90
8489;DHT22;4281;45.772;12.852;2022-10-16T02:15:58;16.60;99.90
8489;DHT22;4281;45.772;12.852;2022-10-16T02:18:27;16.60;99.90
8489;DHT22;4281;45.772;12.852;2022-10-16T02:21:01;16.70;99.90
8489;DHT22;4281;45.772;12.852;2022-10-16T02:23:36;16.70;99.90
8489;DHT22;4281;45.772;12.852;2022-10-16T02:26:08;16.70;99.90
8489;DHT22;4281;45.772;12.852;2022-10-16T02:28:46;16.50;99.90
8489;DHT22;4281;45.772;12.852;2022-10-16T02:31:24;16.50;99.90
8489;DHT22;4281;45.772;12.852;2022-10-16T02:33:55;16.50;99.90
8489;DHT22;4281;45.772;12.852;2022-10-16T02:36:26;16.60;99.90
8489;DHT22;4281;45.772;12.852;2022-10-16T02:38:55;16.40;99.90
8489;DHT22;4281;45.772;12.852;2022-10-16T02:44:04;16.80;99.90
8489;DHT22;4281;45.772;12.852;2022-10-16T02:46:33;16.90;99.90
8489;DHT22;4281;45.772;12.852;2022-10-16T02:49:01;16.70;99.90
8489;DHT22;4281;45.772;12.852;2022-10-16T02:51:29;16.40;99.90
8489;DHT22;4281;45.772;12.852;2022-10-16T02:53:58;16.50;99.90
8489;DHT22;4281;45.772;12.852;2022-10-16T02:56:26;16.40;99.90
8489;DHT22;4281;45.772;12.852;2022-10-16T02:58:54;16.50;99.90
8489;DHT22;4281;45.772;12.852;2022-10-16T03:01:24;16.50;99.90
8489;DHT22;4281;45.772;12.852;2022-10-16T03:03:53;16.40;99.90
8489;DHT22;4281;45.772;12.852;2022-10-16T03:06:21;16.40;99.90
8489;DHT22;4281;45.772;12.852;2022-10-16T03:08:49;16.40;99.90
8489;DHT22;4281;45.772;12.852;2022-10-16T03:11:17;16.30;99.90
8489;DHT22;4281;45.772;12.852;2022-10-16T03:13:46;16.40;99.90
8489;DHT22;4281;45.772;12.852;2022-10-16T03:16:14;16.50;99.90
8489;DHT22;4281;45.772;12.852;2022-10-16T03:18:47;16.40;99.90
8489;DHT22;4281;45.772;12.852;2022-10-16T03:21:16;16.30;99.90
8489;DHT22;4281;45.772;12.852;2022-10-16T03:23:44;16.30;99.90
8489;DHT22;4281;45.772;12.852;2022-10-16T03:26:13;16.30;99.90
8489;DHT22;4281;45.772;12.852;2022-10-16T03:28:41;16.20;99.90
8489;DHT22;4281;45.772;12.852;2022-10-16T03:31:10;16.20;99.90
8489;DHT22;4281;45.772;12.852;2022-10-16T03:33:38;16.20;99.90
8489;DHT22;4281;45.772;12.852;2022-10-16T03:36:08;16.10;99.90
8489;DHT22;4281;45.772;12.852;2022-10-16T03:38:36;16.00;99.90
8489;DHT22;4281;45.772;12.852;2022-10-16T03:41:04;16.10;99.90
8489;DHT22;4281;45.772;12.852;2022-10-16T03:43:34;16.10;99.90
8489;DHT22;4281;45.772;12.852;2022-10-16T03:46:02;16.20;99.90
8489;DHT22;4281;45.772;12.852;2022-10-16T03:48:31;16.20;99.90
8489;DHT22;4281;45.772;12.852;2022-10-16T03:50:59;16.20;99.90
8489;DHT22;4281;45.772;12.852;2022-10-16T03:53:31;16.30;99.90
8489;DHT22;4281;45.772;12.852;2022-10-16T03:56:00;16.30;99.90
8489;DHT22;4281;45.772;12.852;2022-10-16T03:58:28;16.30;99.90
8489;DHT22;4281;45.772;12.852;2022-10-16T04:00:57;16.20;99.90
8489;DHT22;4281;45.772;12.852;2022-10-16T04:03:25;16.30;99.90
8489;DHT22;4281;45.772;12.852;2022-10-16T04:05:53;16.30;99.90
8489;DHT22;4281;45.772;12.852;2022-10-16T04:08:23;16.30;99.90
8489;DHT22;4281;45.772;12.852;2022-10-16T04:10:53;16.30;99.90
8489;DHT22;4281;45.772;12.852;2022-10-16T04:13:21;16.20;99.90
8489;DHT22;4281;45.772;12.852;2022-10-16T04:15:50;16.10;99.90
8489;DHT22;4281;45.772;12.852;2022-10-16T04:18:20;16.10;99.90
8489;DHT22;4281;45.772;12.852;2022-10-16T04:20:49;16.20;99.90
8489;DHT22;4281;45.772;12.852;2022-10-16T04:23:18;16.30;99.90
8489;DHT22;4281;45.772;12.852;2022-10-16T04:25:46;16.30;99.90
8489;DHT22;4281;45.772;12.852;2022-10-16T04:28:16;16.30;99.90
8489;DHT22;4281;45.772;12.852;2022-10-16T04:30:44;16.20;99.90
8489;DHT22;4281;45.772;12.852;2022-10-16T04:33:13;16.30;99.90
8489;DHT22;4281;45.772;12.852;2022-10-16T04:35:41;16.30;99.90
8489;DHT22;4281;45.772;12.852;2022-10-16T04:38:09;16.30;99.90
8489;DHT22;4281;45.772;12.852;2022-10-16T04:40:38;15.80;99.90
8489;DHT22;4281;45.772;12.852;2022-10-16T04:43:06;15.80;99.90
8489;DHT22;4281;45.772;12.852;2022-10-16T04:45:36;16.00;99.90
8489;DHT22;4281;45.772;12.852;2022-10-16T04:48:04;16.10;99.90
8489;DHT22;4281;45.772;12.852;2022-10-16T04:50:33;16.20;99.90
8489;DHT22;4281;45.772;12.852;2022-10-16T04:53:01;16.10;99.90
8489;DHT22;4281;45.772;12.852;2022-10-16T04:55:29;16.10;99.90
8489;DHT22;4281;45.772;12.852;2022-10-16T04:57:58;16.00;99.90
8489;DHT22;4281;45.772;12.852;2022-10-16T05:00:26;16.00;99.90
8489;DHT22;4281;45.772;12.852;2022-10-16T05:02:56;16.00;99.90
8489;DHT22;4281;45.772;12.852;2022-10-16T05:05:26;16.00;99.90
8489;DHT22;4281;45.772;12.852;2022-10-16T05:07:55;16.00;99.90
8489;DHT22;4281;45.772;12.852;2022-10-16T05:10:23;16.10;99.90
8489;DHT22;4281;45.772;12.852;2022-10-16T05:12:51;16.10;99.90
8489;DHT22;4281;45.772;12.852;2022-10-16T05:15:20;16.20;99.90
8489;DHT22;4281;45.772;12.852;2022-10-16T05:17:52;16.30;99.90
8489;DHT22;4281;45.772;12.852;2022-10-16T05:20:23;16.30;99.90
8489;DHT22;4281;45.772;12.852;2022-10-16T05:22:52;16.30;99.90
8489;DHT22;4281;45.772;12.852;2022-10-16T05:25:21;16.20;99.90
8489;DHT22;4281;45.772;12.852;2022-10-16T05:27:49;16.30;99.90
8489;DHT22;4281;45.772;12.852;2022-10-16T05:30:18;16.40;99.90
8489;DHT22;4281;45.772;12.852;2022-10-16T05:32:47;16.40;99.90
8489;DHT22;4281;45.772;12.852;2022-10-16T05:35:16;16.40;99.90
8489;DHT22;4281;45.772;12.852;2022-10-16T05:37:46;16.30;99.90
8489;DHT22;4281;45.772;12.852;2022-10-16T05:40:15;16.10;99.90
8489;DHT22;4281;45.772;12.852;2022-10-16T05:42:44;16.20;99.90
8489;DHT22;4281;45.772;12.852;2022-10-16T05:45:12;16.10;99.90
8489;DHT22;4281;45.772;12.852;2022-10-16T05:47:40;16.10;99.90
8489;DHT22;4281;45.772;12.852;2022-10-16T05:50:11;16.20;99.90
8489;DHT22;4281;45.772;12.852;2022-10-16T05:52:40;16.40;99.90
8489;DHT22;4281;45.772;12.852;2022-10-16T05:55:10;16.40;99.90
8489;DHT22;4281;45.772;12.852;2022-10-16T05:57:38;16.30;99.90
8489;DHT22;4281;45.772;12.852;2022-10-16T06:00:07;16.30;99.90
8489;DHT22;4281;45.772;12.852;2022-10-16T06:02:36;16.40;99.90
8489;DHT22;4281;45.772;12.852;2022-10-16T06:05:05;16.50;99.90
8489;DHT22;4281;45.772;12.852;2022-10-16T06:07:35;16.50;99.90
8489;DHT22;4281;45.772;12.852;2022-10-16T06:10:05;16.40;99.90
8489;DHT22;4281;45.772;12.852;2022-10-16T06:12:35;16.40;99.90
8489;DHT22;4281;45.772;12.852;2022-10-16T06:15:04;16.50;99.90
8489;DHT22;4281;45.772;12.852;2022-10-16T06:17:33;16.40;99.90
8489;DHT22;4281;45.772;12.852;2022-10-16T06:20:02;16.20;99.90
8489;DHT22;4281;45.772;12.852;2022-10-16T06:22:30;16.30;99.90
8489;DHT22;4281;45.772;12.852;2022-10-16T06:24:59;16.20;99.90
8489;DHT22;4281;45.772;12.852;2022-10-16T06:27:27;16.30;99.90
8489;DHT22;4281;45.772;12.852;2022-10-16T06:29:57;16.30;99.90
8489;DHT22;4281;45.772;12.852;2022-10-16T06:32:26;16.30;99.90
8489;DHT22;4281;45.772;12.852;2022-10-16T06:34:55;16.40;99.90
8489;DHT22;4281;45.772;12.852;2022-10-16T06:37:23;16.40;99.90
8489;DHT22;4281;45.772;12.852;2022-10-16T06:39:52;16.50;99.90
8489;DHT22;4281;45.772;12.852;2022-10-16T06:42:20;16.30;99.90
8489;DHT22;4281;45.772;12.852;2022-10-16T06:44:49;16.40;99.90
8489;DHT22;4281;45.772;12.852;2022-10-16T06:47:19;16.40;99.90
8489;DHT22;4281;45.772;12.852;2022-10-16T06:49:47;16.30;99.90
8489;DHT22;4281;45.772;12.852;2022-10-16T06:52:20;16.50;99.90
8489;DHT22;4281;45.772;12.852;2022-10-16T06:54:49;16.50;99.90
8489;DHT22;4281;45.772;12.852;2022-10-16T06:57:18;16.60;99.90
8489;DHT22;4281;45.772;12.852;2022-10-16T06:59:46;16.70;99.90
8489;DHT22;4281;45.772;12.852;2022-10-16T07:02:22;16.80;99.90
8489;DHT22;4281;45.772;12.852;2022-10-16T07:04:51;16.60;99.90
8489;DHT22;4281;45.772;12.852;2022-10-16T07:07:19;16.60;99.90
8489;DHT22;4281;45.772;12.852;2022-10-16T07:09:48;16.70;99.90
8489;DHT22;4281;45.772;12.852;2022-10-16T07:12:16;16.90;99.90
8489;DHT22;4281;45.772;12.852;2022-10-16T07:14:44;16.90;99.90
8489;DHT22;4281;45.772;12.852;2022-10-16T07:17:13;16.90;99.90
8489;DHT22;4281;45.772;12.852;2022-10-16T07:19:46;16.90;99.90
8489;DHT22;4281;45.772;12.852;2022-10-16T07:22:16;17.00;99.90
8489;DHT22;4281;45.772;12.852;2022-10-16T07:24:45;17.10;99.90
8489;DHT22;4281;45.772;12.852;2022-10-16T07:27:18;17.00;99.90
8489;DHT22;4281;45.772;12.852;2022-10-16T07:29:49;17.10;99.90
8489;DHT22;4281;45.772;12.852;2022-10-16T07:32:17;17.10;99.90
8489;DHT22;4281;45.772;12.852;2022-10-16T07:34:47;17.20;99.90
8489;DHT22;4281;45.772;12.852;2022-10-16T07:37:15;17.20;99.90
8489;DHT22;4281;45.772;12.852;2022-10-16T07:39:43;17.20;99.90
8489;DHT22;4281;45.772;12.852;2022-10-16T07:44:45;17.30;99.90
8489;DHT22;4281;45.772;12.852;2022-10-16T07:47:13;17.50;99.90
8489;DHT22;4281;45.772;12.852;2022-10-16T07:49:42;17.50;99.90
8489;DHT22;4281;45.772;12.852;2022-10-16T07:52:11;17.50;99.90
8489;DHT22;4281;45.772;12.852;2022-10-16T07:54:40;17.40;99.90
8489;DHT22;4281;45.772;12.852;2022-10-16T07:57:08;17.40;99.90
8489;DHT22;4281;45.772;12.852;2022-10-16T07:59:37;17.40;99.90
8489;DHT22;4281;45.772;12.852;2022-10-16T08:02:06;17.50;99.90
8489;DHT22;4281;45.772;12.852;2022-10-16T08:04:35;17.70;99.90
8489;DHT22;4281;45.772;12.852;2022-10-16T08:07:03;17.80;99.90
8489;DHT22;4281;45.772;12.852;2022-10-16T08:09:33;17.80;99.90
8489;DHT22;4281;45.772;12.852;2022-10-16T08:12:01;18.00;99.90
8489;DHT22;4281;45.772;12.852;2022-10-16T08:14:31;18.10;99.90
8489;DHT22;4281;45.772;12.852;2022-10-16T08:16:59;18.20;99.90
8489;DHT22;4281;45.772;12.852;2022-10-16T08:19:28;18.20;99.90
8489;DHT22;4281;45.772;12.852;2022-10-16T08:21:58;18.20;99.90
8489;DHT22;4281;45.772;12.852;2022-10-16T08:24:27;18.30;99.90
8489;DHT22;4281;45.772;12.852;2022-10-16T08:27:00;18.50;99.90
8489;DHT22;4281;45.772;12.852;2022-10-16T08:29:29;18.60;99.90
8489;DHT22;4281;45.772;12.852;2022-10-16T08:31:58;18.70;99.90
8489;DHT22;4281;45.772;12.852;2022-10-16T08:34:26;18.70;99.90
8489;DHT22;4281;45.772;12.852;2022-10-16T08:36:56;18.70;99.90
8489;DHT22;4281;45.772;12.852;2022-10-16T08:39:24;18.70;99.90
8489;DHT22;4281;45.772;12.852;2022-10-16T08:48:09;18.90;99.90
8489;DHT22;4281;45.772;12.852;2022-10-16T08:50:42;19.10;99.90
8489;DHT22;4281;45.772;12.852;2022-10-16T08:53:17;19.10;99.90
8489;DHT22;4281;45.772;12.852;2022-10-16T08:55:49;19.10;99.90
8489;DHT22;4281;45.772;12.852;2022-10-16T08:58:27;19.10;99.90
8489;DHT22;4281;45.772;12.852;2022-10-16T09:01:01;19.10;99.90
8489;DHT22;4281;45.772;12.852;2022-10-16T09:03:42;19.20;99.90
8489;DHT22;4281;45.772;12.852;2022-10-16T09:06:25;19.20;99.90
8489;DHT22;4281;45.772;12.852;2022-10-16T09:09:18;19.10;99.90
8489;DHT22;4281;45.772;12.852;2022-10-16T09:11:56;19.10;99.90
8489;DHT22;4281;45.772;12.852;2022-10-16T09:14:44;19.20;99.90
8489;DHT22;4281;45.772;12.852;2022-10-16T09:17:24;19.20;99.90
8489;DHT22;4281;45.772;12.852;2022-10-16T09:20:04;19.30;99.90
8489;DHT22;4281;45.772;12.852;2022-10-16T09:22:38;19.40;99.90
8489;DHT22;4281;45.772;12.852;2022-10-16T09:25:12;19.70;99.90
8489;DHT22;4281;45.772;12.852;2022-10-16T09:27:40;19.90;99.90
8489;DHT22;4281;45.772;12.852;2022-10-16T09:30:12;20.00;99.90
8489;DHT22;4281;45.772;12.852;2022-10-16T09:32:43;20.20;99.90
8489;DHT22;4281;45.772;12.852;2022-10-16T09:35:15;20.00;99.90
8489;DHT22;4281;45.772;12.852;2022-10-16T09:37:47;20.10;99.90
8489;DHT22;4281;45.772;12.852;2022-10-16T09:40:25;20.20;99.90
8489;DHT22;4281;45.772;12.852;2022-10-16T09:43:19;20.20;99.90
8489;DHT22;4281;45.772;12.852;2022-10-16T09:45:59;20.30;99.90
8489;DHT22;4281;45.772;12.852;2022-10-16T09:48:35;20.20;99.90
8489;DHT22;4281;45.772;12.852;2022-10-16T09:51:06;20.20;99.90
8489;DHT22;4281;45.772;12.852;2022-10-16T09:53:40;20.10;99.90
8489;DHT22;4281;45.772;12.852;2022-10-16T09:56:11;20.10;99.90
8489;DHT22;4281;45.772;12.852;2022-10-16T09:58:49;20.20;99.90
8489;DHT22;4281;45.772;12.852;2022-10-16T10:01:17;20.20;99.90
8489;DHT22;4281;45.772;12.852;2022-10-16T10:03:48;20.30;99.90
8489;DHT22;4281;45.772;12.852;2022-10-16T10:06:23;20.30;99.90
8489;DHT22;4281;45.772;12.852;2022-10-16T10:08:57;20.40;99.90
8489;DHT22;4281;45.772;12.852;2022-10-16T10:11:44;20.50;99.90
8489;DHT22;4281;45.772;12.852;2022-10-16T10:14:34;20.50;99.90
8489;DHT22;4281;45.772;12.852;2022-10-16T10:17:12;20.70;99.90
8489;DHT22;4281;45.772;12.852;2022-10-16T10:19:51;20.70;99.90
8489;DHT22;4281;45.772;12.852;2022-10-16T10:22:27;20.80;99.90
8489;DHT22;4281;45.772;12.852;2022-10-16T10:25:07;20.90;99.90
8489;DHT22;4281;45.772;12.852;2022-10-16T10:27:51;20.90;99.90
8489;DHT22;4281;45.772;12.852;2022-10-16T10:30:25;21.20;99.90
8489;DHT22;4281;45.772;12.852;2022-10-16T10:33:08;21.20;99.90
8489;DHT22;4281;45.772;12.852;2022-10-16T10:35:45;21.20;99.90
8489;DHT22;4281;45.772;12.852;2022-10-16T10:38:30;21.00;99.90
8489;DHT22;4281;45.772;12.852;2022-10-16T10:41:14;21.30;99.90
8489;DHT22;4281;45.772;12.852;2022-10-16T10:43:55;21.30;99.90
8489;DHT22;4281;45.772;12.852;2022-10-16T10:46:34;21.40;99.90
8489;DHT22;4281;45.772;12.852;2022-10-16T10:52:31;21.30;99.90
8489;DHT22;4281;45.772;12.852;2022-10-16T10:55:09;21.30;99.90
8489;DHT22;4281;45.772;12.852;2022-10-16T10:57:44;21.40;99.90
8489;DHT22;4281;45.772;12.852;2022-10-16T11:00:21;21.40;99.90
8489;DHT22;4281;45.772;12.852;2022-10-16T11:02:54;21.60;99.90
8489;DHT22;4281;45.772;12.852;2022-10-16T11:05:45;21.50;99.90
8489;DHT22;4281;45.772;12.852;2022-10-16T11:08:17;21.30;99.90
8489;DHT22;4281;45.772;12.852;2022-10-16T11:10:53;21.30;99.90
8489;DHT22;4281;45.772;12.852;2022-10-16T11:13:29;21.20;99.90
8489;DHT22;4281;45.772;12.852;2022-10-16T11:16:02;21.00;99.90
8489;DHT22;4281;45.772;12.852;2022-10-16T11:18:40;20.90;99.90
8489;DHT22;4281;45.772;12.852;2022-10-16T11:21:14;20.90;99.90
8489;DHT22;4281;45.772;12.852;2022-10-16T11:26:40;20.90;99.90
8489;DHT22;4281;45.772;12.852;2022-10-16T11:29:15;20.90;99.90
8489;DHT22;4281;45.772;12.852;2022-10-16T11:31:48;20.70;99.90
8489;DHT22;4281;45.772;12.852;2022-10-16T11:34:24;20.70;99.90
8489;DHT22;4281;45.772;12.852;2022-10-16T11:36:57;20.70;99.90
8489;DHT22;4281;45.772;12.852;2022-10-16T11:39:29;20.90;99.90
8489;DHT22;4281;45.772;12.852;2022-10-16T11:42:02;21.00;99.90
8489;DHT22;4281;45.772;12.852;2022-10-16T11:44:44;20.90;99.90
8489;DHT22;4281;45.772;12.852;2022-10-16T11:47:27;21.00;99.90
8489;DHT22;4281;45.772;12.852;2022-10-16T11:50:23;21.00;99.90
8489;DHT22;4281;45.772;12.852;2022-10-16T11:52:58;20.90;99.90
8489;DHT22;4281;45.772;12.852;2022-10-16T11:55:35;20.90;99.90
8489;DHT22;4281;45.772;12.852;2022-10-16T11:58:19;20.90;99.90
8489;DHT22;4281;45.772;12.852;2022-10-16T12:00:55;21.00;99.90
8489;DHT22;4281;45.772;12.852;2022-10-16T12:03:30;20.90;99.90
8489;DHT22;4281;45.772;12.852;2022-10-16T12:06:27;21.00;99.90
8489;DHT22;4281;45.772;12.852;2022-10-16T12:08:59;21.10;99.90
8489;DHT22;4281;45.772;12.852;2022-10-16T12:11:35;21.20;99.90
8489;DHT22;4281;45.772;12.852;2022-10-16T12:14:06;21.00;99.90
8489;DHT22;4281;45.772;12.852;2022-10-16T12:16:37;21.00;99.90
8489;DHT22;4281;45.772;12.852;2022-10-16T12:19:12;20.90;99.90
8489;DHT22;4281;45.772;12.852;2022-10-16T12:21:41;20.80;99.90
8489;DHT22;4281;45.772;12.852;2022-10-16T12:24:22;20.90;99.90
8489;DHT22;4281;45.772;12.852;2022-10-16T12:26:56;20.90;99.90
8489;DHT22;4281;45.772;12.852;2022-10-16T12:29:32;20.80;99.90
8489;DHT22;4281;45.772;12.852;2022-10-16T12:32:04;20.80;99.90
8489;DHT22;4281;45.772;12.852;2022-10-16T12:34:39;20.70;99.90
8489;DHT22;4281;45.772;12.852;2022-10-16T12:37:11;20.70;99.90
8489;DHT22;4281;45.772;12.852;2022-10-16T12:39:41;20.70;99.90
8489;DHT22;4281;45.772;12.852;2022-10-16T12:45:28;20.80;99.90
8489;DHT22;4281;45.772;12.852;2022-10-16T12:47:59;20.60;99.90
8489;DHT22;4281;45.772;12.852;2022-10-16T12:50:31;20.60;99.90
8489;DHT22;4281;45.772;12.852;2022-10-16T12:53:01;20.70;99.90
8489;DHT22;4281;45.772;12.852;2022-10-16T12:55:34;20.60;99.90
8489;DHT22;4281;45.772;12.852;2022-10-16T13:01:09;20.60;99.90
8489;DHT22;4281;45.772;12.852;2022-10-16T13:06:50;20.60;99.90
8489;DHT22;4281;45.772;12.852;2022-10-16T13:09:38;20.50;99.90
8489;DHT22;4281;45.772;12.852;2022-10-16T13:12:23;20.50;99.90
8489;DHT22;4281;45.772;12.852;2022-10-16T13:15:07;20.60;99.90
8489;DHT22;4281;45.772;12.852;2022-10-16T13:17:49;20.60;99.90
8489;DHT22;4281;45.772;12.852;2022-10-16T13:20:24;20.50;99.90
8489;DHT22;4281;45.772;12.852;2022-10-16T13:23:02;20.60;99.90
8489;DHT22;4281;45.772;12.852;2022-10-16T13:25:40;20.60;99.90
8489;DHT22;4281;45.772;12.852;2022-10-16T13:28:12;20.50;99.90
8489;DHT22;4281;45.772;12.852;2022-10-16T13:30:42;20.50;99.90
8489;DHT22;4281;45.772;12.852;2022-10-16T13:33:16;20.50;99.90
8489;DHT22;4281;45.772;12.852;2022-10-16T13:35:50;20.50;99.90
8489;DHT22;4281;45.772;12.852;2022-10-16T13:38:21;20.50;99.90
8489;DHT22;4281;45.772;12.852;2022-10-16T13:40:54;20.50;99.90
8489;DHT22;4281;45.772;12.852;2022-10-16T13:43:26;20.70;99.90
8489;DHT22;4281;45.772;12.852;2022-10-16T13:45:58;20.70;99.90
8489;DHT22;4281;45.772;12.852;2022-10-16T13:48:28;20.70;99.90
8489;DHT22;4281;45.772;12.852;2022-10-16T13:51:01;20.90;99.90
8489;DHT22;4281;45.772;12.852;2022-10-16T13:53:32;21.00;99.90
8489;DHT22;4281;45.772;12.852;2022-10-16T13:56:04;21.00;99.90
8489;DHT22;4281;45.772;12.852;2022-10-16T13:58:33;21.00;99.90
8489;DHT22;4281;45.772;12.852;2022-10-16T14:01:03;21.10;99.90
8489;DHT22;4281;45.772;12.852;2022-10-16T14:03:34;21.10;99.90
8489;DHT22;4281;45.772;12.852;2022-10-16T14:06:05;21.20;99.90
8489;DHT22;4281;45.772;12.852;2022-10-16T14:08:42;21.30;99.90
8489;DHT22;4281;45.772;12.852;2022-10-16T14:11:11;21.10;99.90
8489;DHT22;4281;45.772;12.852;2022-10-16T14:13:44;21.00;99.90
8489;DHT22;4281;45.772;12.852;2022-10-16T14:16:17;21.00;99.90
8489;DHT22;4281;45.772;12.852;2022-10-16T14:18:56;20.90;99.90
8489;DHT22;4281;45.772;12.852;2022-10-16T14:21:25;20.90;99.90
8489;DHT22;4281;45.772;12.852;2022-10-16T14:23:55;21.00;99.90
8489;DHT22;4281;45.772;12.852;2022-10-16T14:26:26;20.90;99.90
8489;DHT22;4281;45.772;12.852;2022-10-16T14:29:08;20.80;99.90
8489;DHT22;4281;45.772;12.852;2022-10-16T14:31:38;20.80;99.90
8489;DHT22;4281;45.772;12.852;2022-10-16T14:34:24;20.70;99.90
8489;DHT22;4281;45.772;12.852;2022-10-16T14:36:55;20.70;99.90
8489;DHT22;4281;45.772;12.852;2022-10-16T14:39:25;20.70;99.90
8489;DHT22;4281;45.772;12.852;2022-10-16T14:41:57;20.80;99.90
8489;DHT22;4281;45.772;12.852;2022-10-16T14:44:30;20.80;99.90
8489;DHT22;4281;45.772;12.852;2022-10-16T14:47:08;20.70;99.90
8489;DHT22;4281;45.772;12.852;2022-10-16T14:49:38;20.70;99.90
8489;DHT22;4281;45.772;12.852;2022-10-16T14:52:10;20.70;99.90
8489;DHT22;4281;45.772;12.852;2022-10-16T14:54:40;20.60;99.90
8489;DHT22;4281;45.772;12.852;2022-10-16T14:57:17;20.60;99.90
8489;DHT22;4281;45.772;12.852;2022-10-16T14:59:46;20.60;99.90
8489;DHT22;4281;45.772;12.852;2022-10-16T15:02:20;20.50;99.90
8489;DHT22;4281;45.772;12.852;2022-10-16T15:04:52;20.50;99.90
8489;DHT22;4281;45.772;12.852;2022-10-16T15:07:21;20.50;99.90
8489;DHT22;4281;45.772;12.852;2022-10-16T15:09:49;20.50;99.90
8489;DHT22;4281;45.772;12.852;2022-10-16T15:12:18;20.40;99.90
8489;DHT22;4281;45.772;12.852;2022-10-16T15:14:46;20.50;99.90
8489;DHT22;4281;45.772;12.852;2022-10-16T15:17:15;20.40;99.90
8489;DHT22;4281;45.772;12.852;2022-10-16T15:19:47;20.40;99.90
8489;DHT22;4281;45.772;12.852;2022-10-16T15:22:17;20.40;99.90
8489;DHT22;4281;45.772;12.852;2022-10-16T15:24:46;20.30;99.90
8489;DHT22;4281;45.772;12.852;2022-10-16T15:27:14;20.30;99.90
8489;DHT22;4281;45.772;12.852;2022-10-16T15:29:42;20.20;99.90
8489;DHT22;4281;45.772;12.852;2022-10-16T15:32:10;20.30;99.90
8489;DHT22;4281;45.772;12.852;2022-10-16T15:34:39;20.30;99.90
8489;DHT22;4281;45.772;12.852;2022-10-16T15:37:08;20.30;99.90
8489;DHT22;4281;45.772;12.852;2022-10-16T15:39:40;20.30;99.90
8489;DHT22;4281;45.772;12.852;2022-10-16T15:42:08;20.30;99.90
8489;DHT22;4281;45.772;12.852;2022-10-16T15:44:36;20.30;99.90
8489;DHT22;4281;45.772;12.852;2022-10-16T15:47:05;20.30;99.90
8489;DHT22;4281;45.772;12.852;2022-10-16T15:49:33;20.30;99.90
8489;DHT22;4281;45.772;12.852;2022-10-16T15:52:02;20.30;99.90
8489;DHT22;4281;45.772;12.852;2022-10-16T15:54:31;20.40;99.90
8489;DHT22;4281;45.772;12.852;2022-10-16T15:57:01;20.20;99.90
8489;DHT22;4281;45.772;12.852;2022-10-16T15:59:29;20.20;99.90
8489;DHT22;4281;45.772;12.852;2022-10-16T16:01:58;20.20;99.90
8489;DHT22;4281;45.772;12.852;2022-10-16T16:04:29;20.10;99.90
8489;DHT22;4281;45.772;12.852;2022-10-16T16:07:10;20.10;99.90
8489;DHT22;4281;45.772;12.852;2022-10-16T16:09:38;20.10;99.90
8489;DHT22;4281;45.772;12.852;2022-10-16T16:12:09;20.10;99.90
8489;DHT22;4281;45.772;12.852;2022-10-16T16:14:37;20.10;99.90
8489;DHT22;4281;45.772;12.852;2022-10-16T16:17:06;20.00;99.90
8489;DHT22;4281;45.772;12.852;2022-10-16T16:19:34;20.00;99.90
8489;DHT22;4281;45.772;12.852;2022-10-16T16:22:03;19.90;99.90
8489;DHT22;4281;45.772;12.852;2022-10-16T16:24:38;19.90;99.90
8489;DHT22;4281;45.772;12.852;2022-10-16T16:27:06;20.00;99.90
8489;DHT22;4281;45.772;12.852;2022-10-16T16:29:36;19.90;99.90
8489;DHT22;4281;45.772;12.852;2022-10-16T16:32:04;19.80;99.90
8489;DHT22;4281;45.772;12.852;2022-10-16T16:34:33;19.80;99.90
8489;DHT22;4281;45.772;12.852;2022-10-16T16:37:01;19.80;99.90
8489;DHT22;4281;45.772;12.852;2022-10-16T16:39:30;19.70;99.90
8489;DHT22;4281;45.772;12.852;2022-10-16T16:41:59;19.70;99.90